Flight Track Log - Related Links

Times and Time Zones

All times are in EDT time to prevent confusion due to time zone crossing. See the EMD21 flight status page for this flight to view local times or setup timezone preferences in your user account.

Time Position Orientation Groundspeed Altitude Reporting Facility
EDT Latitude Longitude Course Direction KTS MPH feet Rate Location/Type
Sat 09:19:38 PM 32.8000 -97.3500 140° Southeast 122 140 1,300  Level Dallas / Fort Worth TRACON
Sat 09:20:32 PM 32.7833 -97.3333 140° Southeast 144 166 2,400 1,376 Climbing Dallas / Fort Worth TRACON
Sat 09:21:27 PM 32.8333 -97.3333 360° North 167 192 3,800 1,357 Climbing Dallas / Fort Worth TRACON
Sat 09:22:27 PM 32.8667 -97.3333 360° North 160 184 5,000 1,261 Climbing Dallas / Fort Worth TRACON
Sat 09:23:26 PM 32.9167 -97.3167 16° North 176 203 6,300 1,361 Climbing Dallas / Fort Worth TRACON
Sat 09:24:26 PM 32.9667 -97.3167 360° North 162 186 7,700 1,379 Climbing Dallas / Fort Worth TRACON
Sat 09:24:53 PM 32.9878 -97.3069 21° North 157 181 8,300 966 Climbing Fort Worth Center
Sat 09:25:53 PM 33.0233 -97.2969 13° North 182 209 9,100 1,100 Climbing Fort Worth Center
Sat 09:26:53 PM 33.0733 -97.2794 16° North 177 204 10,500 1,000 Climbing Fort Worth Center
Sat 09:27:53 PM 33.1067 -97.2597 26° Northeast 156 180 11,100 300 Climbing Fort Worth Center
Sat 09:28:53 PM 33.1506 -97.2100 43° Northeast 176 203 11,100  Level Fort Worth Center
Sat 09:29:53 PM 33.1922 -97.1703 39° Northeast 199 229 11,100  Level Fort Worth Center
Sat 09:30:53 PM 33.2464 -97.1228 36° Northeast 205 236 11,100  Level Fort Worth Center
Sat 09:31:53 PM 33.3006 -97.0853 30° Northeast 220 253 11,100  Level Fort Worth Center
Sat 09:32:53 PM 33.3442 -97.0453 37° Northeast 225 259 11,100  Level Fort Worth Center
Sat 09:33:53 PM 33.3983 -97.0006 35° Northeast 220 253 11,100  Level Fort Worth Center
Sat 09:34:53 PM 33.4464 -96.9628 33° Northeast 220 253 11,100  Level Fort Worth Center
Sat 09:35:53 PM 33.5025 -96.9153 35° Northeast 220 253 11,100  Level Fort Worth Center
Sat 09:36:53 PM 33.5503 -96.8800 32° Northeast 220 253 11,100  Level Fort Worth Center
Sat 09:37:53 PM 33.6086 -96.8322 34° Northeast 220 253 11,100  Level Fort Worth Center
Sat 09:38:53 PM 33.6564 -96.7922 35° Northeast 220 253 11,100  Level Fort Worth Center
Sat 09:39:53 PM 33.7167 -96.7467 32° Northeast 220 253 11,100  Level Fort Worth Center
Sat 09:40:53 PM 33.7644 -96.7064 35° Northeast 225 259 11,100  Level Fort Worth Center
Sat 09:41:53 PM 33.8225 -96.6533 37° Northeast 230 265 11,100  Level Fort Worth Center
Sat 09:42:53 PM 33.8744 -96.6181 29° Northeast 230 265 11,100  Level Fort Worth Center
Sat 09:43:53 PM 33.9283 -96.5700 36° Northeast 230 265 11,100  Level Fort Worth Center
Sat 09:44:53 PM 33.9825 -96.5242 35° Northeast 230 265 11,100  Level Fort Worth Center
Sat 09:45:53 PM 34.0406 -96.4836 30° Northeast 230 265 11,100  Level Fort Worth Center
Sat 09:46:53 PM 34.0944 -96.4353 37° Northeast 230 265 11,100  Level Fort Worth Center
Sat 09:47:53 PM 34.1503 -96.3869 36° Northeast 230 265 11,100  Level Fort Worth Center
Sat 09:48:53 PM 34.2083 -96.3436 32° Northeast 235 270 11,100 -350 Level Fort Worth Center
Sat 09:49:53 PM 34.2622 -96.2928 38° Northeast 235 270 10,400 -850 Descending Fort Worth Center
Sat 09:50:53 PM 34.3203 -96.2467 33° Northeast 246 283 9,400 -908 Descending Fort Worth Center
Sat 09:51:52 PM 34.3825 -96.2006 31° Northeast 251 289 8,600 -908 Descending Fort Worth Center
Sat 09:52:52 PM 34.4361 -96.1494 38° Northeast 256 295 7,600 -1,000 Descending Fort Worth Center
Sat 09:53:52 PM 34.4942 -96.1033 33° Northeast 251 289 6,600 -942 Descending Fort Worth Center
Sat 09:54:53 PM 34.5522 -96.0619 30° Northeast 244 281 5,700 -885 Descending Fort Worth Center

Login

Don't have an account? Register now (free) for customized features, flight alerts, and more!